Time;durP1;ratioP1;P1;durP2;ratioP2;P2;SDS_P1;SDS_P2;PMS_P1;PMS_P2;Temp;Humidity;BMP_temperature;BMP_pressure;BME280_temperature;BME280_humidity;BME280_pressure;Samples;Min_cycle;Max_cycle;Signal;HPM_P1;HPM_P2
2023/07/30 05:17:40;;;;;;;;;;;;;;;;;;4969476;28;19930;-46
2023/07/30 05:20:05;;;;;;;;;;;;;;;;;;4971667;28;20435;-47
2023/07/30 05:22:31;;;;;;;;;;;;;;;;;;4972724;28;19918;-46
2023/07/30 05:24:57;;;;;;;;;;;;;;;;;;4972736;28;20393;-47
2023/07/30 05:27:23;;;;;;;;;;;;;;;;;;4972873;28;20385;-46
2023/07/30 05:29:49;;;;;;;;;;;;;;;;;;4973073;28;19914;-49
2023/07/30 05:32:15;;;;;;;;;;;;;;;;;;4973386;28;19969;-46
2023/07/30 05:34:41;;;;;;;;;;;;;;;;;;4972596;28;19914;-47
2023/07/30 05:37:08;;;;;;;;;;;;;;;;;;4972888;28;20317;-47
2023/07/30 05:39:34;;;;;;;;;;;;;;;;;;4972648;28;19914;-46
2023/07/30 05:41:59;;;;;;;;;;;;;;;;;;4972518;28;19917;-46
2023/07/30 05:44:25;;;;;;;;;;;;;;;;;;4972523;28;20435;-48
2023/07/30 05:46:51;;;;;;;;;;;;;;;;;;4971805;28;19910;-47
2023/07/30 05:49:17;;;;;;;;;;;;;;;;;;4984324;28;19910;-47
2023/07/30 05:51:43;;;;;;;;;;;;;;;;;;4993367;28;19952;-46
2023/07/30 05:54:09;;;;;;;;;;;;;;;;;;4983256;28;19914;-47
2023/07/30 05:56:35;;;;;;;;;;;;;;;;;;4970783;28;19921;-47
2023/07/30 05:59:01;;;;;;;;;;;;;;;;;;4971021;28;19914;-47
2023/07/30 06:01:26;;;;;;;;;;;;;;;;;;4971982;28;20289;-47
2023/07/30 06:03:53;;;;;;;;;;;;;;;;;;4972167;28;19910;-46
2023/07/30 06:06:26;;;;;;;;;;;;;;;;;;4972379;28;19917;-46
2023/07/30 06:08:52;;;;;;;;;;;;;;;;;;4972088;28;19910;-47
2023/07/30 06:11:18;;;;;;;;;;;;;;;;;;4972460;28;20393;-45
2023/07/30 06:13:44;;;;;;;;;;;;;;;;;;4972876;28;20008;-47
2023/07/30 06:16:10;;;;;;;;;;;;;;;;;;4972964;28;19911;-46
2023/07/30 06:18:36;;;;;;;;;;;;;;;;;;4963901;28;19918;-45
2023/07/30 06:21:02;;;;;;;;;;;;;;;;;;4953644;29;20383;-46
2023/07/30 06:23:27;;;;;;;;;;;;;;;;;;4953706;28;19914;-47
2023/07/30 06:25:53;;;;;;;;;;;;;;;;;;4953318;29;20289;-46
2023/07/30 06:28:19;;;;;;;;;;;;;;;;;;4967099;28;19914;-45
2023/07/30 06:30:45;;;;;;;;;;;;;;;;;;4972150;28;20308;-46
2023/07/30 06:33:11;;;;;;;;;;;;;;;;;;4972875;28;20005;-49
2023/07/30 06:35:37;;;;;;;;;;;;;;;;;;4972555;28;19917;-46
2023/07/30 06:38:03;;;;;;;;;;;;;;;;;;4972022;28;19934;-45
2023/07/30 06:40:29;;;;;;;;;;;;;;;;;;4970897;28;19914;-46
2023/07/30 06:42:54;;;;;;;;;;;;;;;;;;4959621;28;20420;-46
2023/07/30 06:45:20;;;;;;;;;;;;;;;;;;4959346;28;19918;-46
2023/07/30 06:47:46;;;;;;;;;;;;;;;;;;4971533;28;19918;-46
2023/07/30 06:50:12;;;;;;;;;;;;;;;;;;4971362;28;19918;-45
2023/07/30 06:52:38;;;;;;;;;;;;;;;;;;4970605;28;20324;-45
2023/07/30 06:55:04;;;;;;;;;;;;;;;;;;4971282;28;19921;-45
2023/07/30 06:57:30;;;;;;;;;;;;;;;;;;4971270;28;19964;-49
2023/07/30 06:59:56;;;;;;;;;;;;;;;;;;4971070;28;20155;-47
2023/07/30 07:02:22;;;;;;;;;;;;;;;;;;4968832;28;19925;-46
2023/07/30 07:04:48;;;;;;;;;;;;;;;;;;4970280;28;19918;-48
2023/07/30 07:07:14;;;;;;;;;;;;;;;;;;4967707;28;19910;-46
2023/07/30 07:09:40;;;;;;;;;;;;;;;;;;4970752;28;19918;-46
2023/07/30 07:12:05;;;;;;;;;;;;;;;;;;4970796;28;19914;-48
2023/07/30 07:14:31;;;;;;;;;;;;;;;;;;4970238;28;20369;-46
2023/07/30 07:16:57;;;;;;;;;;;;;;;;;;4969221;28;19921;-47
2023/07/30 07:19:23;;;;;;;;;;;;;;;;;;4968885;28;20387;-46
2023/07/30 07:21:50;;;;;;;;;;;;;;;;;;4968814;28;21447;-47
2023/07/30 07:24:16;;;;;;;;;;;;;;;;;;4969960;28;20061;-49
2023/07/30 07:26:42;;;;;;;;;;;;;;;;;;4969185;28;20031;-46
2023/07/30 07:29:08;;;;;;;;;;;;;;;;;;4968555;28;19914;-46
2023/07/30 07:31:33;;;;;;;;;;;;;;;;;;4969523;28;20440;-45
2023/07/30 07:33:59;;;;;;;;;;;;;;;;;;4969916;28;19957;-46
2023/07/30 07:36:25;;;;;;;;;;;;;;;;;;4969135;28;20376;-45
2023/07/30 07:38:51;;;;;;;;;;;;;;;;;;4968685;28;19925;-47
2023/07/30 07:41:17;;;;;;;;;;;;;;;;;;4968965;28;19961;-46
2023/07/30 07:43:43;;;;;;;;;;;;;;;;;;4968462;28;19914;-46
2023/07/30 07:46:13;;;;;;;;;;;;;;;;;;4969081;28;19914;-46
2023/07/30 07:48:39;;;;;;;;;;;;;;;;;;4968519;28;19918;-45
2023/07/30 07:51:05;;;;;;;;;;;;;;;;;;4968876;28;20217;-45
2023/07/30 07:53:31;;;;;;;;;;;;;;;;;;4969838;28;19965;-46
2023/07/30 07:55:57;;;;;;;;;;;;;;;;;;4969467;28;19910;-46
2023/07/30 07:58:22;;;;;;;;;;;;;;;;;;4968940;28;19960;-46
2023/07/30 08:00:48;;;;;;;;;;;;;;;;;;4969331;28;19917;-47
2023/07/30 08:03:14;;;;;;;;;;;;;;;;;;4969312;28;19918;-47
2023/07/30 08:05:40;;;;;;;;;;;;;;;;;;4968900;28;20138;-47
2023/07/30 08:08:06;;;;;;;;;;;;;;;;;;4967188;28;20301;-48
2023/07/30 08:10:32;;;;;;;;;;;;;;;;;;4967501;28;19922;-46
2023/07/30 08:12:58;;;;;;;;;;;;;;;;;;4967662;28;20111;-45
2023/07/30 08:15:24;;;;;;;;;;;;;;;;;;4967465;28;20056;-46
2023/07/30 08:17:50;;;;;;;;;;;;;;;;;;4967264;28;20408;-45
2023/07/30 08:20:15;;;;;;;;;;;;;;;;;;4967567;28;19925;-48
2023/07/30 08:22:41;;;;;;;;;;;;;;;;;;4968766;28;19946;-46
2023/07/30 08:25:07;;;;;;;;;;;;;;;;;;4971792;28;19914;-46
2023/07/30 08:27:33;;;;;;;;;;;;;;;;;;4971229;28;20005;-47
2023/07/30 08:29:59;;;;;;;;;;;;;;;;;;4971411;28;19921;-46
2023/07/30 08:32:25;;;;;;;;;;;;;;;;;;4970897;28;20286;-47
2023/07/30 08:34:51;;;;;;;;;;;;;;;;;;4970927;28;19969;-45
2023/07/30 08:37:17;;;;;;;;;;;;;;;;;;4954089;28;19980;-45
2023/07/30 08:39:43;;;;;;;;;;;;;;;;;;4970656;28;19925;-47
2023/07/30 08:42:08;;;;;;;;;;;;;;;;;;4970724;28;19949;-46
2023/07/30 08:44:34;;;;;;;;;;;;;;;;;;4972005;28;19921;-46
2023/07/30 08:47:00;;;;;;;;;;;;;;;;;;4971454;28;19914;-45
2023/07/30 08:49:32;;;;;;;;;;;;;;;;;;4970308;28;20336;-46
2023/07/30 08:51:58;;;;;;;;;;;;;;;;;;4968173;28;19998;-49
2023/07/30 08:54:24;;;;;;;;;;;;;;;;;;4953280;28;20455;-49
2023/07/30 08:56:50;;;;;;;;;;;;;;;;;;4975996;28;19922;-47
2023/07/30 08:59:16;;;;;;;;;;;;;;;;;;4967159;28;19925;-46
2023/07/30 09:01:42;;;;;;;;;;;;;;;;;;4964132;28;20292;-47
2023/07/30 09:04:08;;;;;;;;;;;;;;;;;;4971162;28;19921;-48
2023/07/30 09:06:34;;;;;;;;;;;;;;;;;;4971592;28;20324;-46
2023/07/30 09:09:00;;;;;;;;;;;;;;;;;;4971220;28;19910;-46
2023/07/30 09:11:27;;;;;;;;;;;;;;;;;;4969719;28;19918;-46
2023/07/30 09:13:53;;;;;;;;;;;;;;;;;;4971357;28;19910;-48
2023/07/30 09:16:18;;;;;;;;;;;;;;;;;;4970140;28;20410;-46
2023/07/30 09:18:44;;;;;;;;;;;;;;;;;;4971813;28;19922;-46
2023/07/30 09:21:10;;;;;;;;;;;;;;;;;;4969720;28;19921;-46
2023/07/30 09:23:36;;;;;;;;;;;;;;;;;;4971219;28;19961;-46
2023/07/30 09:26:02;;;;;;;;;;;;;;;;;;4970724;28;19918;-45
2023/07/30 09:28:28;;;;;;;;;;;;;;;;;;4970231;28;20009;-49
2023/07/30 09:30:54;;;;;;;;;;;;;;;;;;4971014;28;19914;-46
2023/07/30 09:33:21;;;;;;;;;;;;;;;;;;4970381;28;19910;-46
2023/07/30 09:35:48;;;;;;;;;;;;;;;;;;4970977;28;20281;-46
2023/07/30 09:38:14;;;;;;;;;;;;;;;;;;4971447;28;20484;-47
2023/07/30 09:40:42;;;;;;;;;;;;;;;;;;4970509;28;20008;-45
2023/07/30 09:43:09;;;;;;;;;;;;;;;;;;4970883;28;19910;-46
2023/07/30 09:45:38;;;;;;;;;;;;;;;;;;4970972;28;20010;-47
2023/07/30 09:48:04;;;;;;;;;;;;;;;;;;4970637;28;19909;-45
2023/07/30 09:50:31;;;;;;;;;;;;;;;;;;4971149;28;19957;-48
2023/07/30 09:52:56;;;;;;;;;;;;;;;;;;4970278;28;20317;-44
2023/07/30 09:55:22;;;;;;;;;;;;;;;;;;4970442;28;19910;-46
2023/07/30 09:57:48;;;;;;;;;;;;;;;;;;4970568;28;20166;-47
2023/07/30 10:00:14;;;;;;;;;;;;;;;;;;4970403;28;19973;-45
2023/07/30 10:02:40;;;;;;;;;;;;;;;;;;4969417;28;20389;-46
2023/07/30 10:05:06;;;;;;;;;;;;;;;;;;4970535;28;19993;-45
2023/07/30 10:07:32;;;;;;;;;;;;;;;;;;4970552;28;19921;-45
2023/07/30 10:09:58;;;;;;;;;;;;;;;;;;4969837;28;19917;-45
2023/07/30 10:12:24;;;;;;;;;;;;;;;;;;4970408;28;19917;-45
2023/07/30 10:14:50;;;;;;;;;;;;;;;;;;4968067;28;19936;-45
2023/07/30 10:17:15;;;;;;;;;;;;;;;;;;4970832;28;19915;-46
2023/07/30 10:19:41;;;;;;;;;;;;;;;;;;4969224;28;19957;-46
2023/07/30 10:22:07;;;;;;;;;;;;;;;;;;4969609;28;19961;-46
2023/07/30 10:24:33;;;;;;;;;;;;;;;;;;4970205;28;19940;-47
2023/07/30 10:26:59;;;;;;;;;;;;;;;;;;4969223;28;19914;-45
2023/07/30 10:29:25;;;;;;;;;;;;;;;;;;4969548;28;20349;-46
2023/07/30 10:31:51;;;;;;;;;;;;;;;;;;4969728;28;19965;-46
2023/07/30 10:34:17;;;;;;;;;;;;;;;;;;4969661;28;20420;-48
2023/07/30 10:36:43;;;;;;;;;;;;;;;;;;4969036;28;19957;-46
2023/07/30 10:39:09;;;;;;;;;;;;;;;;;;4969139;28;19976;-47
2023/07/30 10:41:35;;;;;;;;;;;;;;;;;;4969490;28;19922;-45
2023/07/30 10:44:03;;;;;;;;;;;;;;;;;;4964753;28;20406;-45
2023/07/30 10:46:29;;;;;;;;;;;;;;;;;;4966359;28;19984;-45
2023/07/30 10:48:54;;;;;;;;;;;;;;;;;;4970288;28;19922;-46
2023/07/30 10:51:20;;;;;;;;;;;;;;;;;;4967051;28;19914;-45
2023/07/30 10:53:46;;;;;;;;;;;;;;;;;;4969630;28;20429;-47
2023/07/30 10:56:12;;;;;;;;;;;;;;;;;;4968943;28;19914;-46
2023/07/30 10:58:38;;;;;;;;;;;;;;;;;;4967330;28;19918;-47
2023/07/30 11:01:04;;;;;;;;;;;;;;;;;;4968220;28;19937;-47
2023/07/30 11:03:31;;;;;;;;;;;;;;;;;;4968355;28;19914;-45
2023/07/30 11:05:57;;;;;;;;;;;;;;;;;;4968652;28;19993;-46
2023/07/30 11:08:23;;;;;;;;;;;;;;;;;;4970624;28;20349;-45
2023/07/30 11:10:49;;;;;;;;;;;;;;;;;;4967503;28;21335;-48
2023/07/30 11:13:15;;;;;;;;;;;;;;;;;;4967462;28;19918;-46
2023/07/30 11:15:41;;;;;;;;;;;;;;;;;;4970532;28;19921;-48
2023/07/30 11:18:07;;;;;;;;;;;;;;;;;;4967146;28;19922;-47
2023/07/30 11:20:33;;;;;;;;;;;;;;;;;;4969895;28;20408;-45
2023/07/30 11:22:59;;;;;;;;;;;;;;;;;;4969209;28;19914;-46
2023/07/30 11:25:25;;;;;;;;;;;;;;;;;;4963033;28;20422;-47
2023/07/30 11:27:51;;;;;;;;;;;;;;;;;;4965234;28;19914;-47
2023/07/30 11:30:16;;;;;;;;;;;;;;;;;;4968643;28;20390;-47
2023/07/30 11:32:44;;;;;;;;;;;;;;;;;;4969471;28;19918;-45
2023/07/30 11:35:10;;;;;;;;;;;;;;;;;;4968538;28;19942;-47
2023/07/30 11:37:39;;;;;;;;;;;;;;;;;;4969605;28;20011;-45
2023/07/30 11:40:05;;;;;;;;;;;;;;;;;;4969969;28;19962;-47
2023/07/30 11:42:31;;;;;;;;;;;;;;;;;;4970122;28;19993;-46
2023/07/30 11:44:57;;;;;;;;;;;;;;;;;;4968178;28;19921;-46
2023/07/30 11:47:23;;;;;;;;;;;;;;;;;;4970175;28;20015;-46
2023/07/30 11:49:49;;;;;;;;;;;;;;;;;;4968801;28;19933;-47
2023/07/30 11:52:15;;;;;;;;;;;;;;;;;;4967658;28;19925;-46
2023/07/30 11:54:41;;;;;;;;;;;;;;;;;;4969819;28;19968;-46
2023/07/30 11:57:07;;;;;;;;;;;;;;;;;;4970067;28;19920;-47
2023/07/30 11:59:33;;;;;;;;;;;;;;;;;;4971854;28;19922;-46
2023/07/30 12:01:58;;;;;;;;;;;;;;;;;;4974933;28;19917;-46
2023/07/30 12:04:24;;;;;;;;;;;;;;;;;;4974059;28;19914;-46
2023/07/30 12:06:51;;;;;;;;;;;;;;;;;;4972962;28;19914;-47
2023/07/30 12:09:18;;;;;;;;;;;;;;;;;;4973807;28;19910;-46
2023/07/30 12:11:44;;;;;;;;;;;;;;;;;;4972844;28;19918;-46
2023/07/30 12:14:10;;;;;;;;;;;;;;;;;;4973642;28;19921;-46
2023/07/30 12:16:37;;;;;;;;;;;;;;;;;;4971961;28;19997;-46
2023/07/30 12:19:03;;;;;;;;;;;;;;;;;;4971144;28;19918;-45
2023/07/30 12:21:29;;;;;;;;;;;;;;;;;;4973099;28;19917;-46
2023/07/30 12:23:54;;;;;;;;;;;;;;;;;;4972766;28;19918;-47
2023/07/30 12:26:20;;;;;;;;;;;;;;;;;;4972348;28;19937;-46
2023/07/30 12:28:46;;;;;;;;;;;;;;;;;;4973009;28;19918;-46
2023/07/30 12:31:12;;;;;;;;;;;;;;;;;;4972655;28;20304;-46
2023/07/30 12:33:38;;;;;;;;;;;;;;;;;;4972366;28;19920;-46
2023/07/30 12:36:04;;;;;;;;;;;;;;;;;;4973331;28;19917;-46
2023/07/30 12:38:30;;;;;;;;;;;;;;;;;;4973781;28;19945;-46
2023/07/30 12:40:56;;;;;;;;;;;;;;;;;;4972610;28;19956;-49
2023/07/30 12:43:21;;;;;;;;;;;;;;;;;;4971991;28;20006;-51
2023/07/30 12:45:47;;;;;;;;;;;;;;;;;;4972487;28;19914;-48
2023/07/30 12:48:13;;;;;;;;;;;;;;;;;;4970551;28;20389;-49
2023/07/30 12:50:39;;;;;;;;;;;;;;;;;;4970022;28;19914;-47
2023/07/30 12:53:05;;;;;;;;;;;;;;;;;;4971290;28;19926;-46
2023/07/30 12:55:31;;;;;;;;;;;;;;;;;;4972396;28;19969;-47
2023/07/30 12:57:57;;;;;;;;;;;;;;;;;;4971744;28;19965;-47
2023/07/30 13:00:23;;;;;;;;;;;;;;;;;;4970126;28;19924;-46
2023/07/30 13:02:52;;;;;;;;;;;;;;;;;;4971775;28;19914;-48
2023/07/30 13:05:18;;;;;;;;;;;;;;;;;;4970848;28;19914;-48
2023/07/30 13:07:44;;;;;;;;;;;;;;;;;;4970750;28;19936;-48
2023/07/30 13:10:10;;;;;;;;;;;;;;;;;;4970971;28;19914;-52
2023/07/30 13:12:36;;;;;;;;;;;;;;;;;;4971973;28;19993;-48
2023/07/30 13:15:02;;;;;;;;;;;;;;;;;;4972800;28;19910;-47
2023/07/30 13:17:28;;;;;;;;;;;;;;;;;;4970020;28;19968;-47
2023/07/30 13:19:54;;;;;;;;;;;;;;;;;;4971455;28;19925;-50
2023/07/30 13:22:20;;;;;;;;;;;;;;;;;;4970991;28;19918;-46
2023/07/30 13:24:46;;;;;;;;;;;;;;;;;;4969317;28;20013;-49
2023/07/30 13:27:12;;;;;;;;;;;;;;;;;;4970003;28;19941;-48
2023/07/30 13:29:37;;;;;;;;;;;;;;;;;;4968200;28;19954;-48
2023/07/30 13:32:03;;;;;;;;;;;;;;;;;;4970633;28;19914;-48
2023/07/30 13:34:29;;;;;;;;;;;;;;;;;;4969830;28;20286;-47
2023/07/30 13:36:55;;;;;;;;;;;;;;;;;;4970229;28;20370;-48
2023/07/30 13:39:21;;;;;;;;;;;;;;;;;;4970566;28;19950;-49
2023/07/30 13:41:47;;;;;;;;;;;;;;;;;;4971253;28;19910;-47
2023/07/30 13:44:13;;;;;;;;;;;;;;;;;;4970780;28;19982;-48
2023/07/30 13:46:40;;;;;;;;;;;;;;;;;;4970909;28;19913;-47
2023/07/30 13:49:06;;;;;;;;;;;;;;;;;;4969868;28;19918;-47
2023/07/30 13:51:32;;;;;;;;;;;;;;;;;;4970943;28;20012;-48
2023/07/30 13:53:58;;;;;;;;;;;;;;;;;;4970431;28;19914;-50
2023/07/30 13:56:23;;;;;;;;;;;;;;;;;;4970097;28;19918;-50
2023/07/30 13:58:49;;;;;;;;;;;;;;;;;;4971425;28;20405;-47
2023/07/30 14:01:15;;;;;;;;;;;;;;;;;;4970726;28;19918;-46
2023/07/30 14:03:41;;;;;;;;;;;;;;;;;;4969547;28;19914;-48
2023/07/30 14:06:07;;;;;;;;;;;;;;;;;;4969870;28;19921;-47
2023/07/30 14:08:33;;;;;;;;;;;;;;;;;;4971307;28;19960;-51
2023/07/30 14:11:00;;;;;;;;;;;;;;;;;;4970322;28;19914;-48
2023/07/30 14:13:26;;;;;;;;;;;;;;;;;;4965291;28;19918;-46
2023/07/30 14:15:51;;;;;;;;;;;;;;;;;;4961919;28;19910;-48
2023/07/30 14:18:17;;;;;;;;;;;;;;;;;;4970303;28;19994;-48
2023/07/30 14:20:43;;;;;;;;;;;;;;;;;;4969255;28;19921;-48
2023/07/30 14:23:10;;;;;;;;;;;;;;;;;;4969423;28;20627;-48
2023/07/30 14:25:36;;;;;;;;;;;;;;;;;;4971348;28;19921;-48
2023/07/30 14:28:02;;;;;;;;;;;;;;;;;;4969938;28;19945;-47
2023/07/30 14:30:28;;;;;;;;;;;;;;;;;;4967794;28;19925;-50
2023/07/30 14:32:54;;;;;;;;;;;;;;;;;;4969643;28;19968;-48
2023/07/30 14:35:20;;;;;;;;;;;;;;;;;;4970553;28;20493;-47
2023/07/30 14:37:46;;;;;;;;;;;;;;;;;;4966173;28;19914;-46
2023/07/30 14:40:11;;;;;;;;;;;;;;;;;;4961537;28;19914;-49
2023/07/30 14:42:38;;;;;;;;;;;;;;;;;;4960227;28;19918;-50
2023/07/30 14:45:04;;;;;;;;;;;;;;;;;;4970093;28;20321;-48
2023/07/30 14:47:30;;;;;;;;;;;;;;;;;;4969929;28;19915;-48
2023/07/30 14:49:56;;;;;;;;;;;;;;;;;;4969685;28;19945;-51
2023/07/30 14:52:22;;;;;;;;;;;;;;;;;;4967632;28;20005;-51
2023/07/30 14:54:48;;;;;;;;;;;;;;;;;;4969298;28;20012;-50
2023/07/30 14:57:14;;;;;;;;;;;;;;;;;;4969031;28;20464;-47
2023/07/30 14:59:40;;;;;;;;;;;;;;;;;;4968352;28;19925;-49
2023/07/30 15:02:06;;;;;;;;;;;;;;;;;;4970374;28;19965;-48
2023/07/30 15:04:31;;;;;;;;;;;;;;;;;;4968998;28;19915;-49
2023/07/30 15:06:57;;;;;;;;;;;;;;;;;;4969815;28;19922;-48
2023/07/30 15:09:23;;;;;;;;;;;;;;;;;;4970199;28;19918;-49
2023/07/30 15:11:49;;;;;;;;;;;;;;;;;;4952306;28;19952;-48
2023/07/30 15:14:15;;;;;;;;;;;;;;;;;;4969541;28;20589;-47
2023/07/30 15:16:41;;;;;;;;;;;;;;;;;;4969950;28;19918;-48
2023/07/30 15:19:07;;;;;;;;;;;;;;;;;;4970594;28;19965;-51
2023/07/30 15:21:33;;;;;;;;;;;;;;;;;;4968806;28;19922;-50
2023/07/30 15:23:59;;;;;;;;;;;;;;;;;;4969679;28;19914;-49
2023/07/30 15:26:24;;;;;;;;;;;;;;;;;;4970099;28;19920;-49
2023/07/30 15:28:50;;;;;;;;;;;;;;;;;;4969604;28;20344;-49
2023/07/30 15:31:16;;;;;;;;;;;;;;;;;;4967613;28;20326;-48
2023/07/30 15:33:43;;;;;;;;;;;;;;;;;;4968303;28;20281;-48
2023/07/30 15:36:09;;;;;;;;;;;;;;;;;;4970169;28;20362;-49
2023/07/30 15:38:35;;;;;;;;;;;;;;;;;;4968779;28;19922;-48
2023/07/30 15:41:00;;;;;;;;;;;;;;;;;;4967149;28;20002;-50
2023/07/30 15:43:26;;;;;;;;;;;;;;;;;;4967926;28;20258;-51
2023/07/30 15:45:53;;;;;;;;;;;;;;;;;;4969038;28;19910;-51
2023/07/30 15:48:19;;;;;;;;;;;;;;;;;;4968376;28;19921;-48
2023/07/30 15:50:45;;;;;;;;;;;;;;;;;;4967337;28;19914;-49
2023/07/30 15:53:11;;;;;;;;;;;;;;;;;;4969052;28;19911;-52
2023/07/30 15:55:36;;;;;;;;;;;;;;;;;;4967187;28;19914;-51
2023/07/30 15:58:02;;;;;;;;;;;;;;;;;;4965550;28;19918;-49
2023/07/30 16:00:28;;;;;;;;;;;;;;;;;;4969087;28;20551;-49
2023/07/30 16:02:54;;;;;;;;;;;;;;;;;;4968658;28;19914;-47
2023/07/30 16:05:20;;;;;;;;;;;;;;;;;;4967444;28;19922;-49
2023/07/30 16:07:46;;;;;;;;;;;;;;;;;;4968374;28;19911;-49
2023/07/30 16:10:12;;;;;;;;;;;;;;;;;;4968928;28;19933;-52
2023/07/30 16:12:38;;;;;;;;;;;;;;;;;;4969383;28;20538;-50
2023/07/30 16:15:04;;;;;;;;;;;;;;;;;;4968183;28;19922;-49
2023/07/30 16:17:30;;;;;;;;;;;;;;;;;;4963934;28;19915;-49
2023/07/30 16:19:55;;;;;;;;;;;;;;;;;;4959736;28;19922;-51
2023/07/30 16:22:21;;;;;;;;;;;;;;;;;;4966426;28;19914;-50
2023/07/30 16:24:48;;;;;;;;;;;;;;;;;;4967172;28;19926;-52
2023/07/30 16:27:13;;;;;;;;;;;;;;;;;;4964874;28;19921;-49
2023/07/30 16:29:39;;;;;;;;;;;;;;;;;;4964528;28;19914;-48
2023/07/30 16:32:08;;;;;;;;;;;;;;;;;;4965116;28;19921;-48
2023/07/30 16:34:34;;;;;;;;;;;;;;;;;;4968755;28;19960;-51
2023/07/30 16:37:00;;;;;;;;;;;;;;;;;;4968596;28;20009;-51
2023/07/30 16:39:26;;;;;;;;;;;;;;;;;;4968347;28;19981;-49
2023/07/30 16:41:53;;;;;;;;;;;;;;;;;;4968478;28;20367;-49
2023/07/30 16:44:19;;;;;;;;;;;;;;;;;;4969603;28;19925;-52
2023/07/30 16:46:45;;;;;;;;;;;;;;;;;;4972184;28;19914;-50
2023/07/30 16:49:11;;;;;;;;;;;;;;;;;;4971978;28;19910;-52
2023/07/30 16:51:37;;;;;;;;;;;;;;;;;;4972150;28;19920;-49
2023/07/30 16:54:03;;;;;;;;;;;;;;;;;;4970860;28;19914;-52
2023/07/30 16:56:29;;;;;;;;;;;;;;;;;;4972165;28;19910;-50
2023/07/30 16:58:55;;;;;;;;;;;;;;;;;;4970939;28;19918;-51
2023/07/30 17:01:21;;;;;;;;;;;;;;;;;;4972229;28;19909;-50
2023/07/30 17:03:47;;;;;;;;;;;;;;;;;;4971364;28;19918;-52
2023/07/30 17:06:13;;;;;;;;;;;;;;;;;;4972090;28;19941;-50
2023/07/30 17:08:39;;;;;;;;;;;;;;;;;;4971214;28;19920;-51
2023/07/30 17:11:05;;;;;;;;;;;;;;;;;;4969713;28;20320;-51
2023/07/30 17:13:31;;;;;;;;;;;;;;;;;;4969269;28;19921;-52
2023/07/30 17:15:57;;;;;;;;;;;;;;;;;;4967533;28;19914;-49
2023/07/30 17:18:23;;;;;;;;;;;;;;;;;;4966522;28;19992;-50
2023/07/30 17:20:49;;;;;;;;;;;;;;;;;;4967908;28;19922;-50
2023/07/30 17:23:15;;;;;;;;;;;;;;;;;;4970157;28;19914;-48
2023/07/30 17:25:40;;;;;;;;;;;;;;;;;;4970317;28;19945;-48
2023/07/30 17:28:06;;;;;;;;;;;;;;;;;;4969852;28;19953;-49
2023/07/30 17:30:33;;;;;;;;;;;;;;;;;;4967515;28;19940;-50
2023/07/30 17:32:59;;;;;;;;;;;;;;;;;;4968615;28;19914;-48
2023/07/30 17:35:25;;;;;;;;;;;;;;;;;;4967679;28;19925;-48
2023/07/30 17:37:51;;;;;;;;;;;;;;;;;;4967113;28;19922;-49
2023/07/30 17:40:16;;;;;;;;;;;;;;;;;;4967567;28;19924;-48
2023/07/30 17:42:42;;;;;;;;;;;;;;;;;;4968976;28;20274;-47
2023/07/30 17:45:08;;;;;;;;;;;;;;;;;;4964271;28;19961;-48
2023/07/30 17:47:34;;;;;;;;;;;;;;;;;;4968076;28;19914;-48
2023/07/30 17:50:00;;;;;;;;;;;;;;;;;;4969650;28;19952;-48
2023/07/30 17:52:26;;;;;;;;;;;;;;;;;;4969801;28;20399;-49
2023/07/30 17:54:52;;;;;;;;;;;;;;;;;;4966104;28;19948;-50
2023/07/30 17:57:18;;;;;;;;;;;;;;;;;;4968330;28;20377;-50
2023/07/30 17:59:44;;;;;;;;;;;;;;;;;;4961716;28;19914;-48
2023/07/30 18:02:10;;;;;;;;;;;;;;;;;;4966773;28;19968;-52
2023/07/30 18:04:37;;;;;;;;;;;;;;;;;;4964180;28;19918;-47
2023/07/30 18:07:03;;;;;;;;;;;;;;;;;;4966727;28;19928;-49
2023/07/30 18:09:29;;;;;;;;;;;;;;;;;;4960917;28;20564;-49
2023/07/30 18:11:55;;;;;;;;;;;;;;;;;;4961323;28;19919;-50
2023/07/30 18:14:21;;;;;;;;;;;;;;;;;;4965656;28;19915;-50
2023/07/30 18:16:47;;;;;;;;;;;;;;;;;;4966259;28;19914;-50
2023/07/30 18:19:13;;;;;;;;;;;;;;;;;;4965708;28;19918;-48
2023/07/30 18:21:39;;;;;;;;;;;;;;;;;;4955450;28;20393;-48
2023/07/30 18:24:05;;;;;;;;;;;;;;;;;;4961132;28;19993;-51
2023/07/30 18:26:31;;;;;;;;;;;;;;;;;;4963412;28;19918;-51
2023/07/30 18:28:57;;;;;;;;;;;;;;;;;;4965013;28;19914;-50
2023/07/30 18:31:22;;;;;;;;;;;;;;;;;;4961459;28;19972;-49
2023/07/30 18:33:49;;;;;;;;;;;;;;;;;;4967297;28;19977;-50
2023/07/30 18:36:14;;;;;;;;;;;;;;;;;;4961770;28;19922;-48
2023/07/30 18:38:40;;;;;;;;;;;;;;;;;;4968350;28;19929;-47
2023/07/30 18:41:07;;;;;;;;;;;;;;;;;;4965285;28;19921;-51
2023/07/30 18:43:33;;;;;;;;;;;;;;;;;;4968518;28;19921;-51
2023/07/30 18:46:00;;;;;;;;;;;;;;;;;;4967390;28;19921;-48
2023/07/30 18:48:28;;;;;;;;;;;;;;;;;;4967769;28;19932;-47
2023/07/30 18:50:54;;;;;;;;;;;;;;;;;;4966093;28;20297;-49
2023/07/30 18:53:21;;;;;;;;;;;;;;;;;;4967720;28;19914;-47
2023/07/30 18:55:49;;;;;;;;;;;;;;;;;;4966763;28;19937;-51
2023/07/30 18:58:15;;;;;;;;;;;;;;;;;;4964947;28;19918;-48
2023/07/30 19:00:41;;;;;;;;;;;;;;;;;;4966518;28;19915;-47
2023/07/30 19:03:06;;;;;;;;;;;;;;;;;;4966446;28;20532;-47
2023/07/30 19:05:32;;;;;;;;;;;;;;;;;;4967552;28;19977;-50
2023/07/30 19:08:01;;;;;;;;;;;;;;;;;;4965015;28;19921;-48
2023/07/30 19:10:27;;;;;;;;;;;;;;;;;;4965919;28;19997;-49
2023/07/30 19:12:53;;;;;;;;;;;;;;;;;;4967552;28;20373;-47
2023/07/30 19:15:20;;;;;;;;;;;;;;;;;;4966871;28;19922;-49
2023/07/30 19:17:46;;;;;;;;;;;;;;;;;;4966123;28;19961;-48
2023/07/30 19:20:12;;;;;;;;;;;;;;;;;;4962737;28;19926;-48
2023/07/30 19:22:38;;;;;;;;;;;;;;;;;;4963609;28;20188;-47
2023/07/30 19:25:04;;;;;;;;;;;;;;;;;;4962617;28;19973;-47
2023/07/30 19:27:29;;;;;;;;;;;;;;;;;;4965495;28;19976;-49
2023/07/30 19:29:55;;;;;;;;;;;;;;;;;;4961694;28;19922;-51
2023/07/30 19:32:21;;;;;;;;;;;;;;;;;;4963160;28;19914;-47
2023/07/30 19:34:47;;;;;;;;;;;;;;;;;;4963964;28;20077;-49
2023/07/30 19:37:13;;;;;;;;;;;;;;;;;;4962708;28;20178;-49
2023/07/30 19:39:39;;;;;;;;;;;;;;;;;;4962799;28;20313;-49
2023/07/30 19:42:05;;;;;;;;;;;;;;;;;;4961970;28;19969;-47
2023/07/30 19:44:31;;;;;;;;;;;;;;;;;;4961592;28;20391;-48
2023/07/30 19:46:56;;;;;;;;;;;;;;;;;;4962344;28;19914;-49
2023/07/30 19:49:23;;;;;;;;;;;;;;;;;;4962522;28;20017;-47
2023/07/30 19:51:49;;;;;;;;;;;;;;;;;;4962951;28;19921;-47
2023/07/30 19:54:14;;;;;;;;;;;;;;;;;;4962809;28;19918;-49
2023/07/30 19:56:40;;;;;;;;;;;;;;;;;;4962507;28;19914;-48
2023/07/30 19:59:06;;;;;;;;;;;;;;;;;;4962222;28;19925;-50
2023/07/30 20:01:32;;;;;;;;;;;;;;;;;;4964825;28;20384;-47
2023/07/30 20:03:58;;;;;;;;;;;;;;;;;;4963057;28;20448;-47
2023/07/30 20:06:24;;;;;;;;;;;;;;;;;;4965312;28;20368;-47
2023/07/30 20:08:50;;;;;;;;;;;;;;;;;;4962431;28;19914;-49
2023/07/30 20:11:16;;;;;;;;;;;;;;;;;;4963310;28;20389;-47
2023/07/30 20:13:42;;;;;;;;;;;;;;;;;;4965318;28;20349;-49
2023/07/30 20:16:08;;;;;;;;;;;;;;;;;;4964008;28;19972;-48
2023/07/30 20:18:34;;;;;;;;;;;;;;;;;;4968421;28;19937;-49
2023/07/30 20:21:00;;;;;;;;;;;;;;;;;;4968664;28;19936;-47
2023/07/30 20:23:26;;;;;;;;;;;;;;;;;;4968221;28;19921;-47
2023/07/30 20:25:51;;;;;;;;;;;;;;;;;;4968675;28;20300;-49
2023/07/30 20:28:17;;;;;;;;;;;;;;;;;;4968066;28;19914;-49
2023/07/30 20:30:43;;;;;;;;;;;;;;;;;;4964981;28;19914;-48
2023/07/30 20:33:09;;;;;;;;;;;;;;;;;;4966410;28;20533;-47
2023/07/30 20:35:38;;;;;;;;;;;;;;;;;;4966807;28;20009;-47
2023/07/30 20:38:04;;;;;;;;;;;;;;;;;;4964252;28;19921;-49
2023/07/30 20:40:30;;;;;;;;;;;;;;;;;;4966039;28;19926;-49
2023/07/30 20:42:55;;;;;;;;;;;;;;;;;;4967634;28;19914;-47
2023/07/30 20:45:22;;;;;;;;;;;;;;;;;;4968719;28;19914;-48
2023/07/30 20:47:48;;;;;;;;;;;;;;;;;;4965803;28;19914;-52
2023/07/30 20:50:15;;;;;;;;;;;;;;;;;;4964339;28;19914;-49
2023/07/30 20:52:42;;;;;;;;;;;;;;;;;;4966844;28;20353;-47
2023/07/30 20:55:08;;;;;;;;;;;;;;;;;;4965540;28;19914;-47
2023/07/30 20:57:33;;;;;;;;;;;;;;;;;;4965872;28;20403;-48
2023/07/30 20:59:59;;;;;;;;;;;;;;;;;;4966205;28;19976;-47
2023/07/30 21:02:25;;;;;;;;;;;;;;;;;;4964135;28;19969;-51
2023/07/30 21:04:51;;;;;;;;;;;;;;;;;;4963275;28;19921;-50
2023/07/30 21:07:17;;;;;;;;;;;;;;;;;;4967519;28;19958;-48
2023/07/30 21:09:43;;;;;;;;;;;;;;;;;;4967663;28;20081;-49
2023/07/30 21:12:09;;;;;;;;;;;;;;;;;;4968899;28;19921;-48
2023/07/30 21:14:35;;;;;;;;;;;;;;;;;;4969658;28;20443;-47
2023/07/30 21:17:01;;;;;;;;;;;;;;;;;;4969806;28;19910;-46
2023/07/30 21:19:27;;;;;;;;;;;;;;;;;;4970045;28;19922;-47
2023/07/30 21:21:52;;;;;;;;;;;;;;;;;;4968215;28;19914;-47
2023/07/30 21:24:18;;;;;;;;;;;;;;;;;;4970893;28;19964;-46
2023/07/30 21:26:44;;;;;;;;;;;;;;;;;;4969572;28;19921;-46
2023/07/30 21:29:10;;;;;;;;;;;;;;;;;;4969693;28;19914;-46
2023/07/30 21:31:36;;;;;;;;;;;;;;;;;;4969759;28;20377;-48
2023/07/30 21:34:02;;;;;;;;;;;;;;;;;;4969753;28;19914;-47
2023/07/30 21:36:28;;;;;;;;;;;;;;;;;;4970030;28;19914;-47
2023/07/30 21:38:54;;;;;;;;;;;;;;;;;;4969378;28;19914;-47
2023/07/30 21:41:20;;;;;;;;;;;;;;;;;;4970112;28;20291;-47
2023/07/30 21:43:45;;;;;;;;;;;;;;;;;;4970583;28;19917;-46
2023/07/30 21:46:11;;;;;;;;;;;;;;;;;;4969841;28;20494;-47
2023/07/30 21:48:38;;;;;;;;;;;;;;;;;;4969900;28;19917;-48
2023/07/30 21:51:04;;;;;;;;;;;;;;;;;;4969136;28;19925;-50
2023/07/30 21:53:30;;;;;;;;;;;;;;;;;;4969696;28;20373;-46